Byron, Minnesota
Current Conditions -  °F | °C
As of 9:13 AM on Monday 24 Nov 2014 (Local Time) from K9MN Reporting Station
Overcast Overcast  
Wind Chill:   Ceiling: 900
Heat Index: 24°   Visibility: 10mi
Dew Point: 22°   Wind: 20mph
Humidity: 91%   Direction: 280°W
Pressure: 29.35"   Gusts: 29mph
Location:  44.03°N, 92.65°W
Report Text: K9MN 241513Z AUTO 28017G25KT 240V300 10SM OVC009 M05/M06 A2935 RMK AO1 T10461058
Loading
Personal Weather Stations






























Interactive Weather Map New forecast layout! Learn more

10-Day Weather Forecast

Advertisements
Track Severe Weather on mobile